Time;durP1;ratioP1;P1;durP2;ratioP2;P2;SDS_P1;SDS_P2;PMS_P1;PMS_P2;Temp;Humidity;BMP_temperature;BMP_pressure;BME280_temperature;BME280_humidity;BME280_pressure;Samples;Min_cycle;Max_cycle;Signal;HPM_P1;HPM_P2
2023/12/13 00:01:38;;;;;;;0.50;0.35;;;16.40;74.20;;;;;;5056796;28;20044;-85
2023/12/13 00:04:04;;;;;;;0.55;0.40;;;16.40;74.30;;;;;;5027102;28;20414;-85
2023/12/13 00:06:29;;;;;;;1.10;0.45;;;16.40;74.30;;;;;;5058788;28;20061;-85
2023/12/13 00:08:55;;;;;;;0.60;0.60;;;16.40;74.20;;;;;;5058209;28;20110;-86
2023/12/13 00:11:20;;;;;;;0.47;0.20;;;16.40;75.00;;;;;;5042231;28;20494;-85
2023/12/13 00:13:46;;;;;;;0.52;0.40;;;16.40;74.20;;;;;;5041598;28;20183;-86
2023/12/13 00:16:12;;;;;;;0.52;0.50;;;16.40;74.20;;;;;;5057814;28;20509;-84
2023/12/13 00:18:37;;;;;;;0.55;0.47;;;16.40;74.20;;;;;;5042136;28;20048;-84
2023/12/13 00:21:03;;;;;;;0.40;0.40;;;16.40;74.20;;;;;;5040660;28;20049;-85
2023/12/13 00:23:28;;;;;;;0.68;0.40;;;16.30;74.10;;;;;;5042817;28;20041;-85
2023/12/13 00:25:54;;;;;;;2.45;0.47;;;16.30;74.20;;;;;;5025231;28;20036;-84
2023/12/13 00:28:20;;;;;;;1.05;0.57;;;16.40;74.20;;;;;;5039126;28;20056;-87
2023/12/13 00:30:45;;;;;;;1.15;0.55;;;16.30;74.20;;;;;;5043947;28;20116;-88
2023/12/13 00:33:14;;;;;;;0.47;0.40;;;16.30;74.00;;;;;;5022048;28;20073;-88
2023/12/13 00:35:39;;;;;;;0.70;0.50;;;16.30;74.00;;;;;;5040074;28;20507;-87
2023/12/13 00:38:05;;;;;;;0.50;0.40;;;16.30;74.00;;;;;;5057949;28;20182;-87
2023/12/13 00:40:30;;;;;;;0.30;0.30;;;16.30;74.10;;;;;;5041546;28;20039;-87
2023/12/13 00:42:56;;;;;;;0.60;0.40;;;16.30;74.00;;;;;;5028758;28;20143;-87
2023/12/13 00:45:22;;;;;;;0.73;0.50;;;16.30;74.00;;;;;;5024461;28;20049;-87
2023/12/13 00:47:48;;;;;;;1.00;0.50;;;16.30;74.00;;;;;;5028304;28;20463;-85
2023/12/13 00:50:13;;;;;;;0.35;0.32;;;16.30;73.90;;;;;;5058042;28;20063;-86
2023/12/13 00:52:39;;;;;;;0.80;0.50;;;16.30;73.90;;;;;;5027914;28;20064;-86
2023/12/13 00:55:05;;;;;;;0.60;0.52;;;16.30;73.90;;;;;;5037073;28;20045;-85
2023/12/13 00:57:31;;;;;;;0.60;0.35;;;16.30;73.80;;;;;;5027887;28;20584;-86
2023/12/13 00:59:56;;;;;;;0.50;0.40;;;16.30;74.00;;;;;;5040390;28;20160;-85
2023/12/13 01:02:22;;;;;;;0.82;0.30;;;16.30;73.80;;;;;;5041736;28;20144;-86
2023/12/13 01:04:48;;;;;;;0.60;0.30;;;16.30;73.90;;;;;;5040331;28;20120;-85
2023/12/13 01:07:13;;;;;;;0.80;0.38;;;16.30;73.90;;;;;;5063850;28;20056;-86
2023/12/13 01:09:39;;;;;;;0.70;0.50;;;16.30;73.80;;;;;;5027952;28;20029;-86
2023/12/13 01:12:05;;;;;;;0.98;0.50;;;16.30;73.80;;;;;;5040635;28;20040;-85
2023/12/13 01:14:31;;;;;;;0.68;0.32;;;16.30;73.80;;;;;;5049922;28;20140;-85
2023/12/13 01:16:57;;;;;;;0.30;0.30;;;16.30;73.70;;;;;;5046985;28;20533;-85
2023/12/13 01:19:24;;;;;;;0.90;0.70;;;16.30;73.70;;;;;;5031038;28;20517;-84
2023/12/13 01:21:50;;;;;;;0.65;0.65;;;16.30;73.70;;;;;;5047964;28;20075;-84
2023/12/13 01:24:15;;;;;;;0.50;0.40;;;16.30;73.70;;;;;;5047182;28;20068;-84
2023/12/13 01:26:41;;;;;;;0.45;0.40;;;16.30;73.70;;;;;;5012901;28;20500;-84
2023/12/13 01:29:06;;;;;;;1.05;0.40;;;16.30;73.70;;;;;;5018617;28;20046;-83
2023/12/13 01:31:32;;;;;;;0.43;0.30;;;16.30;73.60;;;;;;5057139;28;20044;-87
2023/12/13 01:33:58;;;;;;;0.40;0.38;;;16.30;74.50;;;;;;5042018;28;20055;-86
2023/12/13 01:36:23;;;;;;;0.30;0.20;;;16.30;73.60;;;;;;5061922;28;20071;-87
2023/12/13 01:38:49;;;;;;;0.45;0.28;;;16.30;73.60;;;;;;5056788;28;20405;-86
2023/12/13 01:41:19;;;;;;;0.50;0.40;;;16.30;73.60;;;;;;5038861;28;20114;-87
2023/12/13 01:43:45;;;;;;;0.40;0.40;;;16.30;73.50;;;;;;5041179;28;20041;-86
2023/12/13 01:46:11;;;;;;;0.30;0.30;;;16.30;73.60;;;;;;5044210;28;20075;-83
2023/12/13 01:48:37;;;;;;;0.63;0.32;;;16.20;73.50;;;;;;5028117;28;20828;-84
2023/12/13 01:51:02;;;;;;;0.57;0.40;;;16.30;73.50;;;;;;5013606;28;20029;-86
2023/12/13 01:53:28;;;;;;;0.30;0.20;;;16.30;73.50;;;;;;5060424;28;20025;-85
2023/12/13 01:55:54;;;;;;;0.95;0.40;;;16.20;73.20;;;;;;5045402;28;20029;-85
2023/12/13 01:58:20;;;;;;;0.30;0.20;;;16.30;73.40;;;;;;5052448;28;20060;-88
2023/12/13 02:00:45;;;;;;;0.50;0.38;;;16.30;73.40;;;;;;5023422;28;20067;-85
2023/12/13 02:03:11;;;;;;;0.22;0.20;;;16.30;73.30;;;;;;5046766;28;20073;-84
2023/12/13 02:05:37;;;;;;;0.40;0.30;;;16.30;73.50;;;;;;5040157;28;20120;-84
2023/12/13 02:08:03;;;;;;;0.70;0.30;;;16.20;73.30;;;;;;5029364;28;20124;-85
2023/12/13 02:10:29;;;;;;;0.30;0.30;;;16.30;73.40;;;;;;5039076;28;20036;-89
2023/12/13 02:12:54;;;;;;;0.43;0.32;;;16.30;73.40;;;;;;5057924;28;20044;-88
2023/12/13 02:15:20;;;;;;;0.20;0.20;;;16.30;73.40;;;;;;5028706;28;20129;-88
2023/12/13 02:17:50;;;;;;;0.40;0.40;;;16.30;73.40;;;;;;5044614;28;20045;-88
2023/12/13 02:20:15;;;;;;;0.60;0.40;;;16.30;73.30;;;;;;5064021;28;20697;-89
2023/12/13 02:22:41;;;;;;;0.40;0.30;;;16.30;73.40;;;;;;5026524;28;20037;-88
2023/12/13 02:25:11;;;;;;;0.30;0.30;;;16.30;73.30;;;;;;5047956;28;20048;-89
2023/12/13 02:27:36;;;;;;;0.43;0.32;;;16.20;73.40;;;;;;5076304;28;20514;-87
2023/12/13 02:30:02;;;;;;;0.28;0.28;;;16.20;73.30;;;;;;5011308;28;20048;-88
2023/12/13 02:32:28;;;;;;;0.30;0.30;;;16.20;73.40;;;;;;5020649;28;20544;-87
2023/12/13 02:34:54;;;;;;;0.30;0.30;;;16.20;73.50;;;;;;5025832;28;20045;-88
2023/12/13 02:37:19;;;;;;;0.32;0.20;;;16.20;73.40;;;;;;5010628;28;20418;-87
2023/12/13 02:39:45;;;;;;;0.32;0.32;;;16.20;73.50;;;;;;5041817;28;20072;-88
2023/12/13 02:42:10;;;;;;;0.50;0.40;;;16.20;73.40;;;;;;5020543;28;20041;-84
2023/12/13 02:44:37;;;;;;;0.40;0.30;;;16.20;73.30;;;;;;5052653;28;20036;-85
2023/12/13 02:47:03;;;;;;;0.43;0.30;;;16.20;73.40;;;;;;5065641;28;20823;-85
2023/12/13 02:49:29;;;;;;;0.40;0.30;;;16.20;73.40;;;;;;5056394;28;20055;-85
2023/12/13 02:51:54;;;;;;;0.70;0.40;;;16.20;73.40;;;;;;5060664;28;20040;-84
2023/12/13 02:54:20;;;;;;;0.35;0.22;;;16.20;73.30;;;;;;5026866;28;20071;-85
2023/12/13 02:56:45;;;;;;;0.43;0.40;;;16.20;73.30;;;;;;5046342;28;20052;-85
2023/12/13 02:59:11;;;;;;;0.40;0.28;;;16.20;73.20;;;;;;5041214;28;20099;-85
2023/12/13 03:01:37;;;;;;;0.40;0.35;;;16.20;73.30;;;;;;5043721;28;20067;-85
2023/12/13 03:04:02;;;;;;;0.68;0.30;;;16.20;73.40;;;;;;5024349;28;20040;-85
2023/12/13 03:06:28;;;;;;;0.43;0.30;;;16.20;73.30;;;;;;5024501;28;20049;-86
2023/12/13 03:08:53;;;;;;;0.30;0.25;;;16.20;73.40;;;;;;5025634;28;20094;-85
2023/12/13 03:11:20;;;;;;;0.40;0.30;;;16.20;73.30;;;;;;5031955;28;20116;-85
2023/12/13 03:13:46;;;;;;;0.88;0.28;;;16.20;74.10;;;;;;5045244;28;20041;-86
2023/12/13 03:16:11;;;;;;;0.43;0.20;;;16.20;73.50;;;;;;5018691;28;20040;-86
2023/12/13 03:18:37;;;;;;;0.38;0.38;;;16.20;73.30;;;;;;5045536;28;20040;-85
2023/12/13 03:21:02;;;;;;;0.43;0.30;;;16.20;73.40;;;;;;5058873;28;20681;-86
2023/12/13 03:23:28;;;;;;;0.50;0.20;;;16.10;73.40;;;;;;5060608;28;20084;-86
2023/12/13 03:25:53;;;;;;;0.20;0.20;;;16.10;73.40;;;;;;5043038;28;20044;-85
2023/12/13 03:28:19;;;;;;;0.28;0.28;;;16.10;73.40;;;;;;5042576;28;20498;-85
2023/12/13 03:30:44;;;;;;;0.43;0.40;;;16.10;73.30;;;;;;5048374;28;20068;-86
2023/12/13 03:33:10;;;;;;;1.00;0.20;;;16.10;73.40;;;;;;5053166;28;20044;-84
2023/12/13 03:35:36;;;;;;;0.38;0.30;;;16.10;73.40;;;;;;5058079;28;20044;-86
2023/12/13 03:38:01;;;;;;;0.45;0.20;;;16.10;73.30;;;;;;5025776;28;20084;-86
2023/12/13 03:40:27;;;;;;;0.20;0.20;;;16.10;73.90;;;;;;5051617;28;20053;-86
2023/12/13 03:42:52;;;;;;;0.43;0.32;;;16.10;73.40;;;;;;5017211;28;20120;-85
2023/12/13 03:45:18;;;;;;;0.45;0.30;;;16.10;73.40;;;;;;5026171;28;20507;-83
2023/12/13 03:47:43;;;;;;;0.52;0.20;;;16.10;73.40;;;;;;5051547;28;20391;-84
2023/12/13 03:50:09;;;;;;;0.30;0.22;;;16.10;73.40;;;;;;5053325;28;20517;-82
2023/12/13 03:52:35;;;;;;;0.30;0.20;;;16.10;73.30;;;;;;5019581;28;20049;-86
2023/12/13 03:55:00;;;;;;;0.80;0.40;;;16.10;73.60;;;;;;5055631;28;20043;-84
2023/12/13 03:57:27;;;;;;;0.60;0.30;;;16.10;73.30;;;;;;5036912;28;20513;-85
2023/12/13 03:59:52;;;;;;;0.20;0.20;;;16.10;73.20;;;;;;5041253;28;20136;-83
2023/12/13 04:02:18;;;;;;;0.43;0.40;;;16.10;73.20;;;;;;5024557;28;20036;-83
2023/12/13 04:04:43;;;;;;;0.22;0.20;;;16.10;73.20;;;;;;5059408;28;20052;-83
2023/12/13 04:07:10;;;;;;;0.45;0.30;;;16.10;73.20;;;;;;5065826;28;20579;-84
2023/12/13 04:09:36;;;;;;;1.65;0.40;;;16.10;73.20;;;;;;5043693;28;20525;-84
2023/12/13 04:12:02;;;;;;;0.35;0.35;;;16.10;73.20;;;;;;5007209;28;20060;-84
2023/12/13 04:14:27;;;;;;;0.40;0.30;;;16.10;73.30;;;;;;5021714;28;20491;-87
2023/12/13 04:16:53;;;;;;;0.45;0.30;;;16.10;74.00;;;;;;5023947;28;20040;-86
2023/12/13 04:19:19;;;;;;;0.20;0.20;;;16.10;73.20;;;;;;5012512;28;20048;-87
2023/12/13 04:21:44;;;;;;;0.30;0.30;;;16.10;73.00;;;;;;5049074;28;20068;-87
2023/12/13 04:24:10;;;;;;;0.20;0.20;;;16.10;73.20;;;;;;5027537;28;20041;-86
2023/12/13 04:26:35;;;;;;;0.57;0.40;;;16.10;73.20;;;;;;5052023;28;20101;-85
2023/12/13 04:29:01;;;;;;;0.35;0.20;;;16.10;73.20;;;;;;5024152;28;20060;-86
2023/12/13 04:31:27;;;;;;;0.10;0.10;;;16.10;73.10;;;;;;5050258;28;20088;-86
2023/12/13 04:33:52;;;;;;;0.32;0.20;;;16.10;73.10;;;;;;5047761;28;20029;-86
2023/12/13 04:36:18;;;;;;;0.43;0.30;;;16.10;73.10;;;;;;5038017;28;20035;-86
2023/12/13 04:38:44;;;;;;;0.30;0.25;;;16.10;73.00;;;;;;5044947;28;20379;-86
2023/12/13 04:41:09;;;;;;;0.32;0.30;;;16.10;73.00;;;;;;5065138;28;20414;-86
2023/12/13 04:43:35;;;;;;;0.32;0.15;;;16.10;73.10;;;;;;5044532;28;20037;-86
2023/12/13 04:46:00;;;;;;;0.30;0.20;;;16.10;73.10;;;;;;5042338;28;20040;-87
2023/12/13 04:48:26;;;;;;;0.25;0.25;;;16.10;73.00;;;;;;5055223;28;20095;-86
2023/12/13 04:50:52;;;;;;;0.60;0.30;;;16.10;73.00;;;;;;5047585;28;20409;-87
2023/12/13 04:53:17;;;;;;;0.30;0.30;;;16.10;73.10;;;;;;5062721;28;20040;-86
2023/12/13 04:55:43;;;;;;;0.40;0.20;;;16.10;73.00;;;;;;5042202;28;20049;-86
2023/12/13 04:58:09;;;;;;;0.35;0.20;;;16.10;73.00;;;;;;5045998;28;20537;-84
2023/12/13 05:00:34;;;;;;;0.63;0.32;;;16.10;73.00;;;;;;5057988;28;20059;-84
2023/12/13 05:03:00;;;;;;;1.27;0.40;;;16.10;73.00;;;;;;5011594;28;20043;-84
2023/12/13 05:05:25;;;;;;;0.40;0.32;;;16.10;73.00;;;;;;5042645;28;20041;-83
2023/12/13 05:07:51;;;;;;;0.35;0.15;;;16.10;73.00;;;;;;5023600;28;20072;-86
2023/12/13 05:10:17;;;;;;;0.40;0.10;;;16.10;73.00;;;;;;5044916;28;20062;-87
2023/12/13 05:12:42;;;;;;;0.25;0.20;;;16.10;73.00;;;;;;5043721;28;20490;-85
2023/12/13 05:15:08;;;;;;;0.30;0.30;;;16.10;73.00;;;;;;5051498;28;20050;-84
2023/12/13 05:17:34;;;;;;;0.40;0.20;;;16.10;73.00;;;;;;5044764;28;20033;-84
2023/12/13 05:19:59;;;;;;;0.52;0.40;;;16.10;73.00;;;;;;5033196;28;20040;-85
2023/12/13 05:22:25;;;;;;;0.40;0.20;;;16.10;72.90;;;;;;5043473;28;20036;-84
2023/12/13 05:24:51;;;;;;;0.28;0.25;;;16.00;73.00;;;;;;5036813;28;20173;-85
2023/12/13 05:27:16;;;;;;;0.43;0.35;;;16.10;72.90;;;;;;5058959;28;20060;-84
2023/12/13 05:29:43;;;;;;;0.30;0.28;;;16.10;72.90;;;;;;5064128;28;20040;-84
2023/12/13 05:32:08;;;;;;;0.25;0.25;;;16.10;73.00;;;;;;5078482;28;20037;-85
2023/12/13 05:34:34;;;;;;;0.43;0.30;;;16.00;72.90;;;;;;5016502;28;20478;-85
2023/12/13 05:37:05;;;;;;;0.68;0.25;;;16.10;73.00;;;;;;5037616;28;20051;-85
2023/12/13 05:39:33;;;;;;;0.47;0.32;;;16.00;73.70;;;;;;5023500;28;20041;-85
2023/12/13 05:41:59;;;;;;;0.50;0.20;;;16.00;73.00;;;;;;5059286;28;20044;-83
2023/12/13 05:44:25;;;;;;;0.40;0.30;;;16.10;72.90;;;;;;5048570;28;20052;-83
2023/12/13 05:46:50;;;;;;;0.15;0.13;;;16.00;73.00;;;;;;5038596;28;20041;-87
2023/12/13 05:49:16;;;;;;;0.20;0.20;;;16.00;73.00;;;;;;5043024;28;20083;-83
2023/12/13 05:51:41;;;;;;;0.47;0.20;;;16.00;72.90;;;;;;5057772;28;20067;-84
2023/12/13 05:54:07;;;;;;;0.20;0.20;;;16.00;73.00;;;;;;5028386;28;20986;-84
2023/12/13 05:56:33;;;;;;;0.30;0.10;;;16.00;73.10;;;;;;5033534;28;20042;-88
2023/12/13 05:58:58;;;;;;;0.75;0.20;;;16.00;73.00;;;;;;5044033;28;20033;-88
2023/12/13 06:01:24;;;;;;;0.20;0.10;;;16.00;73.00;;;;;;5071503;28;20053;-87
2023/12/13 06:03:50;;;;;;;0.20;0.20;;;16.00;72.90;;;;;;5053095;28;20037;-86
2023/12/13 06:06:16;;;;;;;0.20;0.20;;;16.00;73.00;;;;;;5036300;28;20418;-84
2023/12/13 06:08:41;;;;;;;0.38;0.38;;;16.00;72.90;;;;;;5051144;28;20049;-85
2023/12/13 06:11:07;;;;;;;0.73;0.20;;;16.00;72.80;;;;;;5044469;28;20037;-85
2023/12/13 06:13:33;;;;;;;0.20;0.20;;;16.00;73.00;;;;;;5068360;28;20075;-88
2023/12/13 06:15:59;;;;;;;2.17;0.30;;;16.10;73.00;;;;;;5047066;28;20047;-87
2023/12/13 06:18:24;;;;;;;0.50;0.50;;;16.10;73.40;;;;;;5042985;28;20041;-87
2023/12/13 06:20:51;;;;;;;1.10;1.10;;;16.10;73.80;;;;;;5076604;28;20420;-87
2023/12/13 06:23:16;;;;;;;79.47;51.42;;;16.20;73.60;;;;;;5029138;28;20041;-88
2023/12/13 06:25:42;;;;;;;66.38;43.78;;;16.20;73.80;;;;;;5061393;28;20497;-87
2023/12/13 06:28:08;;;;;;;54.33;35.35;;;16.20;75.10;;;;;;5047139;28;20049;-86
2023/12/13 06:30:33;;;;;;;51.50;30.52;;;16.20;76.30;;;;;;5041940;28;20041;-83
2023/12/13 06:32:59;;;;;;;42.83;26.95;;;16.10;76.80;;;;;;5049821;28;20037;-83
2023/12/13 06:35:25;;;;;;;42.72;26.27;;;16.10;77.70;;;;;;5025233;28;20049;-83
2023/12/13 06:37:50;;;;;;;35.75;23.33;;;16.10;76.90;;;;;;5060237;28;20056;-83
2023/12/13 06:40:18;;;;;;;37.42;23.98;;;16.10;76.30;;;;;;5040595;28;20044;-84
2023/12/13 06:42:43;;;;;;;33.30;22.33;;;16.10;75.80;;;;;;5077258;28;20517;-85
2023/12/13 06:45:09;;;;;;;35.45;22.58;;;16.20;75.60;;;;;;5075393;28;20044;-84
2023/12/13 06:47:35;;;;;;;33.85;23.60;;;16.20;75.70;;;;;;5061095;28;20565;-85
2023/12/13 06:50:00;;;;;;;28.55;20.55;;;16.20;76.10;;;;;;4709283;28;10000330;-85
2023/12/13 06:52:26;;;;;;;30.77;21.15;;;16.20;76.00;;;;;;5051477;28;20411;-84
2023/12/13 06:54:52;;;;;;;31.27;20.40;;;16.20;75.60;;;;;;5076477;28;20100;-84
2023/12/13 06:57:17;;;;;;;31.13;20.52;;;16.20;75.60;;;;;;5057304;28;20037;-83
2023/12/13 06:59:43;;;;;;;29.80;19.30;;;16.20;75.70;;;;;;5041173;28;20048;-84
2023/12/13 07:02:09;;;;;;;28.15;17.63;;;16.20;76.10;;;;;;5041503;28;20048;-84
2023/12/13 07:04:35;;;;;;;23.70;16.52;;;16.20;75.90;;;;;;5052932;28;20480;-84
2023/12/13 07:07:01;;;;;;;26.25;17.75;;;16.20;75.90;;;;;;5026233;28;20468;-83
2023/12/13 07:09:27;;;;;;;23.60;16.73;;;16.20;76.60;;;;;;5053745;28;20531;-83
2023/12/13 07:11:56;;;;;;;21.73;17.08;;;16.30;76.40;;;;;;5029776;28;20075;-84
2023/12/13 07:14:21;;;;;;;24.92;16.20;;;16.20;76.90;;;;;;5054402;28;20065;-84
2023/12/13 07:16:47;;;;;;;24.30;17.48;;;16.20;77.20;;;;;;5052041;28;22291;-85
2023/12/13 07:19:13;;;;;;;22.05;15.25;;;16.20;76.70;;;;;;5040160;28;20040;-85
2023/12/13 07:21:38;;;;;;;21.15;15.15;;;16.20;76.90;;;;;;5026488;28;20099;-85
2023/12/13 07:24:04;;;;;;;20.17;14.98;;;16.20;76.80;;;;;;5051396;28;20052;-85
2023/12/13 07:26:30;;;;;;;20.52;15.27;;;16.20;76.80;;;;;;5055077;28;20045;-85
2023/12/13 07:28:55;;;;;;;20.40;14.63;;;16.20;77.00;;;;;;5039272;28;20040;-85
2023/12/13 07:31:21;;;;;;;19.63;14.85;;;16.20;76.90;;;;;;5055847;28;20541;-85
2023/12/13 07:33:46;;;;;;;19.02;13.68;;;16.20;78.10;;;;;;5066102;28;20037;-84
2023/12/13 07:36:14;;;;;;;17.05;12.50;;;16.20;77.80;;;;;;5042886;28;20045;-84
2023/12/13 07:38:41;;;;;;;17.80;12.88;;;16.20;77.40;;;;;;5034375;28;20041;-87
2023/12/13 07:41:07;;;;;;;17.20;12.45;;;16.30;77.20;;;;;;5038046;28;20672;-87
2023/12/13 07:43:34;;;;;;;16.25;11.52;;;16.40;77.00;;;;;;5048757;28;20106;-84
2023/12/13 07:46:00;;;;;;;17.02;12.43;;;16.50;77.10;;;;;;5036342;28;20175;-86
2023/12/13 07:48:25;;;;;;;15.40;11.75;;;16.50;77.50;;;;;;5015778;28;20041;-85
2023/12/13 07:50:51;;;;;;;15.20;11.77;;;16.50;77.70;;;;;;5035539;28;20040;-86
2023/12/13 07:53:17;;;;;;;14.65;11.23;;;16.50;77.90;;;;;;5045845;28;20068;-85
2023/12/13 07:55:42;;;;;;;13.52;11.45;;;16.50;76.80;;;;;;5040849;28;20045;-85
2023/12/13 07:58:08;;;;;;;13.25;10.82;;;16.50;77.20;;;;;;5042038;28;20501;-85
2023/12/13 08:00:34;;;;;;;21.67;13.90;;;16.50;76.60;;;;;;5005894;28;20165;-84
2023/12/13 08:02:59;;;;;;;16.20;12.27;;;16.60;77.10;;;;;;5013057;28;20048;-86
2023/12/13 08:05:25;;;;;;;15.95;12.35;;;16.60;76.90;;;;;;5041462;28;20037;-85
2023/12/13 08:07:51;;;;;;;18.35;12.25;;;16.50;77.00;;;;;;5024461;28;20619;-85
2023/12/13 08:10:16;;;;;;;14.02;10.57;;;16.60;76.90;;;;;;5019206;28;20076;-86
2023/12/13 08:12:42;;;;;;;13.82;11.10;;;16.60;76.50;;;;;;5019096;28;20040;-85
2023/12/13 08:15:09;;;;;;;14.52;10.80;;;16.60;76.30;;;;;;5010148;28;20041;-85
2023/12/13 08:17:35;;;;;;;15.02;10.38;;;16.60;76.00;;;;;;5058086;28;20037;-85
2023/12/13 08:20:00;;;;;;;12.25;9.30;;;16.60;76.30;;;;;;5038167;28;20407;-85
2023/12/13 08:22:26;;;;;;;12.70;10.30;;;16.60;76.10;;;;;;5023746;28;20119;-85
2023/12/13 08:24:52;;;;;;;12.32;10.70;;;16.60;76.40;;;;;;5035040;28;20613;-85
2023/12/13 08:27:17;;;;;;;13.48;10.45;;;16.60;76.50;;;;;;5050063;28;20032;-85
2023/12/13 08:29:43;;;;;;;11.38;9.70;;;16.60;75.70;;;;;;5041999;28;20044;-86
2023/12/13 08:32:08;;;;;;;12.60;9.43;;;16.60;76.80;;;;;;5047719;28;20648;-84
2023/12/13 08:34:34;;;;;;;10.88;9.10;;;16.60;76.70;;;;;;5047918;28;20037;-84
2023/12/13 08:37:00;;;;;;;11.63;9.77;;;16.60;76.90;;;;;;5029598;28;20064;-85
2023/12/13 08:39:26;;;;;;;12.30;10.32;;;16.60;76.20;;;;;;5043262;28;20076;-86
2023/12/13 08:41:52;;;;;;;10.98;9.52;;;16.60;76.80;;;;;;5039344;28;20044;-86
2023/12/13 08:44:18;;;;;;;10.45;8.88;;;16.60;76.80;;;;;;5040953;28;20396;-85
2023/12/13 08:46:45;;;;;;;10.68;8.95;;;16.60;77.00;;;;;;5002212;28;20601;-85
2023/12/13 08:49:11;;;;;;;10.38;9.27;;;16.60;76.90;;;;;;5040760;28;20048;-85
2023/12/13 08:51:36;;;;;;;10.10;8.98;;;16.60;76.60;;;;;;5023967;28;20087;-85
2023/12/13 08:54:03;;;;;;;10.07;9.02;;;16.60;76.30;;;;;;5031362;28;20041;-85
2023/12/13 08:56:29;;;;;;;9.73;8.73;;;16.60;76.10;;;;;;5028231;28;20045;-84
2023/12/13 08:58:54;;;;;;;9.80;8.68;;;16.70;76.50;;;;;;5052623;28;20047;-84
2023/12/13 09:01:20;;;;;;;9.82;8.40;;;16.70;76.40;;;;;;5058088;28;20044;-83
2023/12/13 09:03:46;;;;;;;10.55;9.13;;;16.70;76.30;;;;;;5029032;28;20045;-83
2023/12/13 09:06:14;;;;;;;9.40;8.00;;;16.70;76.90;;;;;;5070361;28;20059;-83
2023/12/13 09:08:39;;;;;;;10.48;9.05;;;16.70;77.10;;;;;;5035316;28;20055;-84
2023/12/13 09:11:05;;;;;;;9.85;7.65;;;16.70;77.90;;;;;;5072344;28;20045;-83
2023/12/13 09:13:32;;;;;;;10.65;7.90;;;16.70;78.10;;;;;;5062788;28;20044;-84
2023/12/13 09:15:57;;;;;;;8.32;7.53;;;16.70;78.10;;;;;;5039740;28;20549;-84
2023/12/13 09:18:23;;;;;;;8.40;7.60;;;16.70;77.90;;;;;;5006628;28;20052;-85
2023/12/13 09:20:48;;;;;;;8.20;7.40;;;16.70;78.20;;;;;;5025306;28;20198;-85
2023/12/13 09:23:23;;;;;;;11.00;9.90;;;16.70;78.50;;;;;;5026062;28;20101;-84
2023/12/13 09:25:49;;;;;;;9.98;8.93;;;16.80;76.90;;;;;;5061447;28;20090;-85
2023/12/13 09:28:15;;;;;;;9.95;8.52;;;16.80;76.60;;;;;;5019768;28;20867;-84
2023/12/13 09:30:41;;;;;;;9.40;8.40;;;16.80;76.20;;;;;;5047570;28;20117;-85
2023/12/13 09:33:07;;;;;;;12.68;9.88;;;16.80;76.30;;;;;;5059697;28;20426;-85
2023/12/13 09:35:32;;;;;;;10.98;9.80;;;17.00;75.90;;;;;;5021092;28;20510;-85
2023/12/13 09:37:58;;;;;;;12.27;9.82;;;17.00;76.20;;;;;;5051159;28;20465;-86
2023/12/13 09:40:23;;;;;;;10.40;9.30;;;16.90;76.40;;;;;;5051156;28;20051;-85
2023/12/13 09:42:49;;;;;;;9.23;8.32;;;16.80;77.10;;;;;;5071198;28;20070;-85
2023/12/13 09:45:20;;;;;;;10.23;8.95;;;16.80;77.30;;;;;;5043708;28;20416;-85
2023/12/13 09:47:46;;;;;;;10.40;9.05;;;16.80;77.30;;;;;;5027997;28;20546;-85
2023/12/13 09:50:12;;;;;;;10.50;9.40;;;16.80;77.60;;;;;;5044660;28;20044;-85
2023/12/13 09:52:38;;;;;;;11.07;8.68;;;16.80;77.40;;;;;;5036964;28;20044;-84
2023/12/13 09:55:06;;;;;;;9.30;8.35;;;16.80;77.40;;;;;;5054380;28;20444;-85
2023/12/13 09:57:32;;;;;;;8.98;8.07;;;16.80;77.60;;;;;;5046670;28;20055;-84
2023/12/13 09:59:58;;;;;;;9.18;8.23;;;16.80;77.80;;;;;;5045360;28;20044;-86
2023/12/13 10:02:23;;;;;;;9.05;8.25;;;16.80;77.70;;;;;;5039200;28;20502;-85
2023/12/13 10:04:49;;;;;;;8.63;7.70;;;16.80;77.90;;;;;;5055109;28;20106;-85
2023/12/13 10:07:14;;;;;;;9.55;8.57;;;16.80;77.80;;;;;;5038466;28;20516;-87
2023/12/13 10:09:40;;;;;;;8.43;7.60;;;16.90;78.00;;;;;;5056658;28;20450;-84
2023/12/13 10:12:11;;;;;;;10.40;8.63;;;16.90;76.60;;;;;;5052494;28;20029;-84
2023/12/13 10:14:37;;;;;;;9.73;7.82;;;17.00;76.50;;;;;;5056342;28;20045;-88
2023/12/13 10:17:03;;;;;;;9.90;8.00;;;17.00;77.50;;;;;;5012636;28;20066;-86
2023/12/13 10:19:30;;;;;;;10.10;8.95;;;17.00;77.00;;;;;;5057302;28;20037;-86
2023/12/13 10:21:55;;;;;;;8.43;7.57;;;17.00;76.60;;;;;;5039901;28;21654;-87
2023/12/13 10:24:22;;;;;;;7.93;7.15;;;17.10;76.50;;;;;;5031590;28;20098;-86
2023/12/13 10:26:48;;;;;;;7.78;6.97;;;17.10;76.30;;;;;;5067155;28;20045;-87
2023/12/13 10:29:13;;;;;;;7.97;7.18;;;17.00;77.10;;;;;;5026642;28;20059;-85
2023/12/13 10:31:39;;;;;;;8.07;7.28;;;17.10;76.20;;;;;;5044034;28;20068;-84
2023/12/13 10:34:05;;;;;;;8.15;7.30;;;17.10;76.00;;;;;;5072312;28;20502;-88
2023/12/13 10:36:30;;;;;;;7.53;6.72;;;17.10;76.30;;;;;;5072015;28;20441;-87
2023/12/13 10:38:56;;;;;;;7.65;6.95;;;17.10;76.20;;;;;;5050278;28;20056;-85
2023/12/13 10:41:26;;;;;;;7.53;6.80;;;17.10;76.30;;;;;;5057207;28;20122;-85
2023/12/13 10:43:55;;;;;;;6.28;5.78;;;17.10;76.30;;;;;;5027626;28;20037;-89
2023/12/13 10:46:22;;;;;;;7.22;6.53;;;17.10;76.30;;;;;;5039223;28;20040;-86
2023/12/13 10:48:47;;;;;;;7.35;6.65;;;17.10;76.20;;;;;;5057562;28;20044;-84
2023/12/13 10:51:13;;;;;;;6.70;6.07;;;17.10;76.30;;;;;;5075251;28;20029;-86
2023/12/13 10:53:39;;;;;;;6.75;6.18;;;17.10;76.10;;;;;;5048035;28;20087;-85
2023/12/13 10:56:04;;;;;;;6.63;6.03;;;17.10;76.30;;;;;;5039727;28;20528;-85
2023/12/13 10:58:30;;;;;;;6.80;6.20;;;17.10;76.10;;;;;;5021184;28;20048;-85
2023/12/13 11:00:55;;;;;;;6.65;6.05;;;17.10;76.20;;;;;;5031324;28;20514;-86
2023/12/13 11:03:40;;;;;;;6.10;5.60;;;17.10;76.40;;;;;;5035598;28;20041;-86
2023/12/13 11:06:06;;;;;;;6.53;5.93;;;17.10;76.60;;;;;;5040318;28;20132;-86
2023/12/13 11:08:39;;;;;;;6.72;6.13;;;17.10;76.20;;;;;;5037176;28;20063;-88
2023/12/13 11:11:06;;;;;;;7.40;6.78;;;17.20;75.80;;;;;;5029744;28;20156;-88
2023/12/13 11:13:31;;;;;;;7.38;6.50;;;17.20;75.40;;;;;;5044882;28;20052;-89
2023/12/13 11:15:58;;;;;;;6.40;5.90;;;17.20;75.80;;;;;;5057391;28;20707;-88
2023/12/13 11:18:24;;;;;;;7.90;5.95;;;17.20;75.90;;;;;;5041533;28;20552;-88
2023/12/13 11:20:55;;;;;;;6.60;6.00;;;17.10;76.10;;;;;;5026034;28;20129;-87
2023/12/13 11:23:27;;;;;;;6.60;6.00;;;17.10;76.30;;;;;;5059096;28;20588;-88
2023/12/13 11:25:56;;;;;;;5.88;5.47;;;17.20;75.90;;;;;;5058103;28;20052;-87
2023/12/13 11:28:22;;;;;;;6.85;6.25;;;17.20;75.60;;;;;;5073819;28;20533;-87
2023/12/13 11:30:48;;;;;;;9.55;7.22;;;17.20;75.60;;;;;;5040143;28;20063;-84
2023/12/13 11:33:14;;;;;;;7.40;6.68;;;17.30;75.30;;;;;;5046201;28;20417;-83
2023/12/13 11:35:40;;;;;;;7.03;6.43;;;17.30;75.40;;;;;;5052024;28;20049;-83
2023/12/13 11:38:06;;;;;;;7.50;6.80;;;17.30;75.30;;;;;;5065201;28;20041;-88
2023/12/13 11:40:31;;;;;;;13.15;11.70;;;17.30;75.50;;;;;;5040181;28;20483;-88
2023/12/13 11:42:57;;;;;;;13.88;12.48;;;17.30;75.20;;;;;;4690787;28;9999939;-87
2023/12/13 11:45:23;;;;;;;21.92;19.58;;;17.40;75.00;;;;;;5024634;28;20086;-89
2023/12/13 11:47:49;;;;;;;34.78;29.33;;;17.50;74.70;;;;;;5057977;28;20486;-90
2023/12/13 11:50:16;;;;;;;70.97;57.20;;;17.40;75.60;;;;;;5028984;28;20040;-85
2023/12/13 11:52:43;;;;;;;97.05;76.68;;;17.50;74.90;;;;;;5051472;28;20041;-86
2023/12/13 11:55:08;;;;;;;78.35;59.15;;;17.50;75.20;;;;;;5053943;28;20414;-86
2023/12/13 11:57:34;;;;;;;45.20;36.10;;;17.50;75.20;;;;;;5072239;28;20035;-89
2023/12/13 12:00:00;;;;;;;28.08;24.05;;;17.50;75.30;;;;;;5061801;28;20494;-87
2023/12/13 12:02:25;;;;;;;21.95;16.75;;;17.50;75.60;;;;;;5068615;28;20068;-89
2023/12/13 12:04:51;;;;;;;24.08;19.80;;;17.50;75.60;;;;;;5045276;28;20043;-90
2023/12/13 12:07:17;;;;;;;19.83;17.75;;;17.60;75.40;;;;;;5061406;28;20453;-89
2023/12/13 12:09:47;;;;;;;16.23;14.55;;;17.50;75.50;;;;;;5075526;28;20036;-87
2023/12/13 12:12:14;;;;;;;14.50;12.88;;;17.50;75.50;;;;;;5064774;28;20052;-86
2023/12/13 12:14:40;;;;;;;14.30;12.80;;;17.50;75.30;;;;;;5055384;28;20581;-86
2023/12/13 12:17:06;;;;;;;13.05;11.60;;;17.50;75.30;;;;;;4721476;28;9999759;-84
2023/12/13 12:19:31;;;;;;;13.88;11.25;;;17.60;75.30;;;;;;5033935;28;20041;-83
2023/12/13 12:22:01;;;;;;;13.05;11.25;;;17.60;75.10;;;;;;5037793;28;20052;-84
2023/12/13 12:24:27;;;;;;;11.88;10.68;;;17.60;74.90;;;;;;5052422;28;20044;-85
2023/12/13 12:26:54;;;;;;;11.50;10.40;;;17.70;74.80;;;;;;5039997;28;20044;-84
2023/12/13 12:29:19;;;;;;;12.60;10.80;;;17.80;74.50;;;;;;5039614;28;20082;-84
2023/12/13 12:31:45;;;;;;;12.20;10.98;;;17.80;74.70;;;;;;5053472;28;20048;-83
2023/12/13 12:34:12;;;;;;;11.30;10.18;;;17.80;74.20;;;;;;5026258;28;20053;-84